createdAt,value
2023-03-26T18:10:13.160Z,100911.28
2023-03-26T18:13:08.716Z,100917.47
2023-03-26T18:15:50.283Z,100912.84
2023-03-26T18:18:39.380Z,100925.13
2023-03-26T18:21:07.469Z,100925.09
2023-03-26T18:23:44.564Z,100937.63
2023-03-26T18:26:16.594Z,100939.53
2023-03-26T18:28:46.089Z,100942.25
2023-03-26T18:31:23.580Z,100948.13
2023-03-26T18:33:54.677Z,100953.38
2023-03-26T18:36:25.877Z,100952.84
2023-03-26T18:38:58.189Z,100964.88
2023-03-26T18:41:34.524Z,100965.09
2023-03-26T18:44:02.281Z,100963.06
2023-03-26T18:46:29.271Z,100965.69
2023-03-26T18:48:57.089Z,100974.19
2023-03-26T18:51:26.491Z,100977.44
2023-03-26T18:53:59.495Z,100974.00
2023-03-26T18:56:35.499Z,100985.16
2023-03-26T18:59:05.456Z,100986.56
2023-03-26T19:01:36.819Z,100983.63
2023-03-26T19:04:08.440Z,100994.22
2023-03-26T19:06:40.182Z,100987.81
2023-03-26T19:09:23.763Z,101000.56
2023-03-26T19:11:57.777Z,100996.63
2023-03-26T19:14:25.494Z,100999.53
2023-03-26T19:17:01.432Z,101005.19
2023-03-26T19:19:37.523Z,101002.53
2023-03-26T19:22:06.585Z,101002.22
2023-03-26T19:24:34.212Z,101011.28
2023-03-26T19:27:01.321Z,101015.78
2023-03-26T19:29:33.116Z,101018.72
2023-03-26T19:32:06.115Z,101015.25
2023-03-26T19:34:38.791Z,101016.31
2023-03-26T19:37:22.254Z,101023.84
2023-03-26T19:39:54.592Z,101025.94
2023-03-26T19:42:43.708Z,101034.72
2023-03-26T19:45:18.298Z,101032.34
2023-03-26T19:47:48.462Z,101031.78
2023-03-26T19:50:28.330Z,101051.50
2023-03-26T19:53:25.686Z,101048.84
2023-03-26T19:55:56.662Z,101041.91
2023-03-26T19:58:24.371Z,101045.09
2023-03-26T20:00:51.161Z,101050.97
2023-03-26T20:03:24.573Z,101058.94
2023-03-26T20:05:52.113Z,101059.72
2023-03-26T20:08:20.028Z,101063.72
2023-03-26T20:10:46.936Z,101064.81
2023-03-26T20:13:17.693Z,101066.38
2023-03-26T20:18:45.002Z,101069.09
2023-03-26T20:21:12.822Z,101073.31
2023-03-26T20:23:40.893Z,101085.53
2023-03-26T20:26:12.959Z,101085.53
2023-03-26T20:28:47.785Z,101079.44
2023-03-26T20:31:26.862Z,101089.03
2023-03-26T20:33:54.312Z,101088.22
2023-03-26T20:36:33.369Z,101089.28
2023-03-26T20:39:08.445Z,101098.03
2023-03-26T20:41:38.226Z,101099.38
2023-03-26T20:44:13.925Z,101097.50
2023-03-26T20:46:40.867Z,101099.91
2023-03-26T20:49:07.584Z,101107.34
2023-03-26T20:51:34.282Z,101107.63
2023-03-26T20:54:00.937Z,101114.00
2023-03-26T20:56:28.363Z,101115.59
2023-03-26T20:59:10.015Z,101124.91
2023-03-26T21:01:38.570Z,101122.75
2023-03-26T21:04:06.376Z,101126.75
2023-03-26T21:06:33.297Z,101128.09
2023-03-26T21:09:00.369Z,101131.81
2023-03-26T21:11:50.282Z,101141.06
2023-03-26T21:14:24.904Z,101147.44
2023-03-26T21:16:52.798Z,101145.06
2023-03-26T21:19:20.455Z,101146.16
2023-03-26T21:22:09.303Z,101143.22
2023-03-26T21:24:48.336Z,101148.25
2023-03-26T21:27:34.035Z,101155.97
2023-03-26T21:30:01.148Z,101151.16
2023-03-26T21:32:29.351Z,101159.09
2023-03-26T21:34:59.176Z,101162.28
2023-03-26T21:37:26.684Z,101174.22
2023-03-26T21:39:53.683Z,101173.19
2023-03-26T21:42:20.711Z,101176.13
2023-03-26T21:44:47.851Z,101174.81
2023-03-26T21:47:15.083Z,101178.25
2023-03-26T21:49:42.103Z,101186.75
2023-03-26T21:52:15.004Z,101186.78
2023-03-26T21:54:43.417Z,101188.59
2023-03-26T21:57:39.427Z,101194.75
2023-03-26T22:00:23.714Z,101193.59
2023-03-26T22:02:58.878Z,101199.19
2023-03-26T22:05:28.554Z,101200.78
2023-03-26T22:08:03.065Z,101207.69
2023-03-26T22:10:31.286Z,101206.94
2023-03-26T22:12:58.963Z,101220.47
2023-03-26T22:15:31.395Z,101214.63
2023-03-26T22:18:03.413Z,101226.81
2023-03-26T22:20:30.466Z,101222.03
2023-03-26T22:22:57.333Z,101227.03
2023-03-26T22:25:24.314Z,101234.25
2023-03-26T22:27:51.756Z,101234.56
2023-03-26T22:30:20.940Z,101236.88
2023-03-26T22:32:48.778Z,101244.34
2023-03-26T22:35:15.814Z,101242.75
2023-03-26T22:37:42.881Z,101249.44
2023-03-26T22:40:13.074Z,101257.09
2023-03-26T22:42:40.271Z,101251.78
2023-03-26T22:45:07.920Z,101250.50
2023-03-26T22:47:35.604Z,101254.38
2023-03-26T22:50:03.468Z,101260.56
2023-03-26T22:52:30.799Z,101265.31
2023-03-26T22:54:57.538Z,101268.75
2023-03-26T22:57:24.516Z,101270.00
2023-03-26T22:59:52.247Z,101275.56
2023-03-26T23:02:19.906Z,101279.91
2023-03-26T23:04:47.950Z,101287.34
2023-03-26T23:07:15.051Z,101290.00
2023-03-26T23:09:41.884Z,101284.38
2023-03-26T23:12:08.893Z,101295.97
2023-03-26T23:14:36.464Z,101295.25
2023-03-26T23:17:03.829Z,101302.69
2023-03-26T23:19:30.625Z,101301.88
2023-03-26T23:21:57.629Z,101305.78
2023-03-26T23:24:26.648Z,101302.25
2023-03-26T23:26:53.409Z,101316.50
2023-03-26T23:29:20.493Z,101317.94
2023-03-26T23:31:47.669Z,101321.13
2023-03-26T23:34:15.476Z,101333.63
2023-03-26T23:36:42.509Z,101332.31
2023-03-26T23:39:09.439Z,101340.25
2023-03-26T23:41:36.931Z,101342.44
2023-03-26T23:44:04.108Z,101335.53
2023-03-26T23:46:33.229Z,101349.06
2023-03-26T23:49:02.646Z,101344.47
2023-03-26T23:51:30.454Z,101339.97
2023-03-26T23:53:57.425Z,101344.22
2023-03-26T23:56:24.253Z,101351.63
2023-03-26T23:58:51.096Z,101352.19
